Time;durP1;ratioP1;P1;durP2;ratioP2;P2;SDS_P1;SDS_P2;PMS_P1;PMS_P2;Temp;Humidity;BMP_temperature;BMP_pressure;BME280_temperature;BME280_humidity;BME280_pressure;Samples;Min_cycle;Max_cycle;Signal;HPM_P1;HPM_P2
2021/12/28 00:01:08;;;;;;;45.58;23.50;;;3.60;99.90;;;;;;6163979;23;20016;-84
2021/12/28 00:03:35;;;;;;;41.63;23.73;;;3.60;99.90;;;;;;6161979;23;20039;-83
2021/12/28 00:06:02;;;;;;;44.40;24.17;;;3.70;99.90;;;;;;6186889;23;20027;-84
2021/12/28 00:08:28;;;;;;;45.28;24.65;;;3.70;99.90;;;;;;6162024;23;20029;-84
2021/12/28 00:10:56;;;;;;;47.20;24.67;;;3.70;99.90;;;;;;6186609;23;20021;-83
2021/12/28 00:13:23;;;;;;;43.05;24.88;;;3.70;99.90;;;;;;6186497;23;20104;-84
2021/12/28 00:18:21;;;;;;;46.70;24.77;;;3.80;99.90;;;;;;6186658;23;20021;-84
2021/12/28 00:20:49;;;;;;;46.13;25.08;;;3.80;99.90;;;;;;6151893;23;20401;-84
2021/12/28 00:23:18;;;;;;;45.80;25.00;;;3.80;99.90;;;;;;6101379;23;20430;-84
2021/12/28 00:25:57;;;;;;;41.92;23.27;;;3.80;99.90;;;;;;6156864;23;20020;-83
2021/12/28 00:28:23;;;;;;;44.95;24.67;;;3.80;99.90;;;;;;6181392;23;20025;-84
2021/12/28 00:30:50;;;;;;;42.45;24.25;;;3.80;99.90;;;;;;6132217;23;20027;-84
2021/12/28 00:33:19;;;;;;;46.38;25.02;;;3.80;99.90;;;;;;6182081;23;20021;-84
2021/12/28 00:35:45;;;;;;;49.45;24.42;;;3.80;99.90;;;;;;6156783;23;20036;-84
2021/12/28 00:38:18;;;;;;;48.47;25.10;;;3.70;99.90;;;;;;6156488;23;20016;-84
2021/12/28 00:40:44;;;;;;;47.42;25.88;;;3.80;99.90;;;;;;6181315;23;20166;-84
2021/12/28 00:43:10;;;;;;;53.20;26.42;;;3.80;99.90;;;;;;6181721;23;20443;-84
2021/12/28 00:45:36;;;;;;;50.30;27.15;;;3.80;99.90;;;;;;6181491;23;20021;-84
2021/12/28 00:48:01;;;;;;;52.55;27.25;;;3.80;99.90;;;;;;6181778;23;20028;-83
2021/12/28 00:50:28;;;;;;;52.53;27.95;;;3.90;99.90;;;;;;6181682;23;20076;-83
2021/12/28 00:52:57;;;;;;;53.42;28.98;;;3.90;99.90;;;;;;6240912;23;20024;-83
2021/12/28 00:55:23;;;;;;;51.22;27.75;;;3.90;99.90;;;;;;6242827;23;20056;-83
2021/12/28 00:57:49;;;;;;;60.55;30.42;;;3.90;99.90;;;;;;6243044;23;20020;-84
2021/12/28 01:00:19;;;;;;;60.35;30.55;;;4.00;99.90;;;;;;6241825;23;20024;-84
2021/12/28 01:02:46;;;;;;;60.20;31.15;;;4.00;99.90;;;;;;6243210;23;20036;-83
2021/12/28 01:05:12;;;;;;;66.13;31.70;;;4.00;99.90;;;;;;6242946;23;20078;-83
2021/12/28 01:07:38;;;;;;;64.50;32.90;;;4.10;99.90;;;;;;6242920;22;20040;-82
2021/12/28 01:10:13;;;;;;;67.35;31.92;;;4.00;99.90;;;;;;6217320;23;20081;-82
2021/12/28 01:12:39;;;;;;;68.13;33.22;;;4.00;99.90;;;;;;6217588;23;20028;-84
2021/12/28 01:15:08;;;;;;;71.85;34.55;;;4.10;99.90;;;;;;6242727;23;20024;-83
2021/12/28 01:17:34;;;;;;;90.40;37.47;;;4.10;99.90;;;;;;6217654;23;20048;-82
2021/12/28 01:20:00;;;;;;;69.75;33.42;;;4.20;99.90;;;;;;6242724;23;20028;-83
2021/12/28 01:22:26;;;;;;;81.93;35.67;;;4.20;99.90;;;;;;6217566;23;20099;-84
2021/12/28 01:25:13;;;;;;;78.05;35.92;;;4.20;99.90;;;;;;6244446;23;20050;-83
2021/12/28 01:27:39;;;;;;;89.70;37.95;;;4.30;99.90;;;;;;6242852;23;20052;-83
2021/12/28 01:30:08;;;;;;;90.45;38.53;;;4.30;99.90;;;;;;6242773;23;20031;-84
2021/12/28 01:32:36;;;;;;;84.45;36.35;;;4.30;99.90;;;;;;6242854;23;20052;-84
2021/12/28 01:35:04;;;;;;;81.82;37.95;;;4.30;99.90;;;;;;6217896;23;20020;-84
2021/12/28 01:37:30;;;;;;;84.35;36.47;;;4.30;99.90;;;;;;6243441;23;20024;-83
2021/12/28 01:39:55;;;;;;;91.80;39.13;;;4.30;99.90;;;;;;6242961;23;20027;-83
2021/12/28 01:42:31;;;;;;;85.18;39.30;;;4.30;99.90;;;;;;6245740;23;20448;-84
2021/12/28 01:45:03;;;;;;;102.60;40.78;;;4.30;99.90;;;;;;6223493;23;20028;-84
2021/12/28 01:47:29;;;;;;;87.88;37.45;;;4.30;99.90;;;;;;6218966;23;20016;-83
2021/12/28 01:49:54;;;;;;;116.78;43.28;;;4.30;99.90;;;;;;6242941;23;20421;-84
2021/12/28 01:52:28;;;;;;;109.55;41.35;;;4.30;99.90;;;;;;6243208;23;20107;-84
2021/12/28 01:54:54;;;;;;;126.75;45.15;;;4.30;99.90;;;;;;6217446;23;20055;-84
2021/12/28 01:57:19;;;;;;;128.63;44.35;;;4.30;99.90;;;;;;6242420;23;20020;-85
2021/12/28 01:59:45;;;;;;;138.73;44.83;;;4.30;99.90;;;;;;6242593;23;20027;-84
2021/12/28 02:02:11;;;;;;;139.35;47.45;;;4.30;99.90;;;;;;6242563;23;20103;-84
2021/12/28 02:04:37;;;;;;;154.57;49.97;;;4.30;99.90;;;;;;6242679;23;20349;-84
2021/12/28 02:07:11;;;;;;;161.23;51.67;;;4.30;99.90;;;;;;6243058;23;20409;-85
2021/12/28 02:09:37;;;;;;;169.70;50.05;;;4.30;99.90;;;;;;6242329;23;20032;-84
2021/12/28 02:12:04;;;;;;;179.13;53.38;;;4.40;99.90;;;;;;6244003;23;20031;-84
2021/12/28 02:14:29;;;;;;;175.32;53.30;;;4.30;99.90;;;;;;6219446;23;20031;-84
2021/12/28 02:16:55;;;;;;;166.82;54.75;;;4.40;99.90;;;;;;6244775;23;20352;-84
2021/12/28 02:19:21;;;;;;;225.95;60.13;;;4.50;99.90;;;;;;6244505;23;20470;-84
2021/12/28 02:21:47;;;;;;;188.52;54.88;;;4.40;99.90;;;;;;6244703;23;20399;-85
2021/12/28 02:24:12;;;;;;;227.50;62.05;;;4.40;99.90;;;;;;6244502;23;20063;-84
2021/12/28 02:26:38;;;;;;;263.42;65.55;;;4.50;99.90;;;;;;6219250;23;20020;-85
2021/12/28 02:29:05;;;;;;;235.25;63.75;;;4.50;99.90;;;;;;6244504;23;20333;-85
2021/12/28 02:31:31;;;;;;;227.00;61.78;;;4.50;99.90;;;;;;6219252;23;20016;-84
2021/12/28 02:33:57;;;;;;;283.98;64.68;;;4.50;99.90;;;;;;6243837;23;20107;-84
2021/12/28 02:36:23;;;;;;;269.85;61.65;;;4.50;99.90;;;;;;6244474;23;20329;-84
2021/12/28 02:38:52;;;;;;;286.33;67.45;;;4.50;99.90;;;;;;6244374;23;20016;-83
2021/12/28 02:41:18;;;;;;;237.73;62.95;;;4.50;99.90;;;;;;6244657;23;20034;-83
2021/12/28 02:43:48;;;;;;;258.60;64.25;;;4.60;99.90;;;;;;6244725;23;20020;-85
2021/12/28 02:46:16;;;;;;;249.15;64.85;;;4.60;99.90;;;;;;6222842;23;20016;-84
2021/12/28 02:48:43;;;;;;;307.50;69.13;;;4.60;99.90;;;;;;6220541;23;20062;-84
2021/12/28 02:51:15;;;;;;;278.25;66.32;;;4.60;99.90;;;;;;6244432;23;20020;-83
2021/12/28 02:53:45;;;;;;;339.08;69.35;;;4.70;99.90;;;;;;6219628;23;20031;-84
2021/12/28 02:56:15;;;;;;;410.67;80.00;;;4.60;99.90;;;;;;6244059;23;20337;-84
2021/12/28 02:58:47;;;;;;;418.17;80.07;;;4.60;99.90;;;;;;6244170;23;20078;-83
2021/12/28 03:01:22;;;;;;;471.80;85.43;;;4.60;99.90;;;;;;6244162;23;20062;-84
2021/12/28 03:03:52;;;;;;;392.40;81.32;;;4.60;99.90;;;;;;6244203;23;20031;-83
2021/12/28 03:06:21;;;;;;;547.40;94.18;;;4.60;99.90;;;;;;6218945;23;20111;-83
2021/12/28 03:08:53;;;;;;;336.90;69.82;;;4.60;99.90;;;;;;6243855;23;20063;-84
2021/12/28 03:11:25;;;;;;;415.42;82.53;;;4.60;99.90;;;;;;6244113;23;20107;-84
2021/12/28 03:13:54;;;;;;;483.05;88.13;;;4.60;99.90;;;;;;6243878;23;20087;-83
2021/12/28 03:16:23;;;;;;;445.08;80.03;;;4.60;99.90;;;;;;6218549;23;20069;-84
2021/12/28 03:18:50;;;;;;;412.92;81.82;;;4.60;99.90;;;;;;6244120;23;20401;-83
2021/12/28 03:21:18;;;;;;;446.40;82.88;;;4.60;99.90;;;;;;6243874;23;20016;-83
2021/12/28 03:23:44;;;;;;;652.65;114.07;;;4.60;99.90;;;;;;6243602;23;20091;-84
2021/12/28 03:26:14;;;;;;;417.35;79.78;;;4.60;99.90;;;;;;6244001;23;20464;-83
2021/12/28 03:28:42;;;;;;;529.50;91.05;;;4.70;99.90;;;;;;6243885;23;20031;-83
2021/12/28 03:31:12;;;;;;;455.40;89.97;;;4.70;99.90;;;;;;6244095;23;20032;-82
2021/12/28 03:33:41;;;;;;;459.98;88.93;;;4.80;99.90;;;;;;6243936;23;20104;-82
2021/12/28 03:36:15;;;;;;;417.38;81.22;;;4.90;99.90;;;;;;6218890;23;20031;-83
2021/12/28 03:38:42;;;;;;;433.77;84.47;;;4.90;99.90;;;;;;6218477;23;20089;-83
2021/12/28 03:41:10;;;;;;;399.48;82.20;;;4.90;99.90;;;;;;6244152;23;20061;-82
2021/12/28 03:43:36;;;;;;;489.70;91.35;;;;;;;;;;6243218;23;20032;-83
2021/12/28 03:46:03;;;;;;;457.35;83.97;;;5.00;99.90;;;;;;6243752;23;20027;-84
2021/12/28 03:48:29;;;;;;;583.90;94.63;;;5.00;99.90;;;;;;6243775;23;20023;-83
2021/12/28 03:50:54;;;;;;;451.20;84.47;;;5.00;99.90;;;;;;6243896;23;20027;-83
2021/12/28 03:53:20;;;;;;;572.83;99.15;;;5.00;99.90;;;;;;6243790;23;20433;-84
2021/12/28 03:55:46;;;;;;;844.92;127.53;;;4.90;99.90;;;;;;6245080;23;20028;-83
2021/12/28 03:58:12;;;;;;;747.97;116.00;;;5.00;99.90;;;;;;6243697;23;20069;-85
2021/12/28 04:00:42;;;;;;;561.50;94.18;;;4.90;99.90;;;;;;6243737;23;20360;-83
2021/12/28 04:03:08;;;;;;;589.75;101.53;;;4.90;99.90;;;;;;6245931;23;20051;-84
2021/12/28 04:05:35;;;;;;;516.47;93.53;;;5.00;99.90;;;;;;6219983;23;20108;-83
2021/12/28 04:08:01;;;;;;;635.10;107.40;;;5.00;99.90;;;;;;6244142;22;20022;-83
2021/12/28 04:10:33;;;;;;;370.10;74.57;;;5.00;99.90;;;;;;6243705;23;20027;-83
2021/12/28 04:12:59;;;;;;;350.30;74.20;;;5.10;99.90;;;;;;6243556;23;20031;-83
2021/12/28 04:15:25;;;;;;;361.48;76.18;;;5.10;99.90;;;;;;6243211;23;20442;-83
2021/12/28 04:17:51;;;;;;;306.75;72.45;;;5.20;99.90;;;;;;6218416;23;20448;-83
2021/12/28 04:20:19;;;;;;;300.27;71.55;;;5.30;99.90;;;;;;6243493;23;20024;-83
2021/12/28 04:22:49;;;;;;;423.83;88.05;;;5.40;99.90;;;;;;6243409;23;20024;-83
2021/12/28 04:25:17;;;;;;;301.02;70.75;;;5.50;99.90;;;;;;6243360;23;20024;-83
2021/12/28 04:27:43;;;;;;;377.77;81.32;;;5.50;99.90;;;;;;6218455;23;20079;-83
2021/12/28 04:30:10;;;;;;;437.77;87.75;;;5.60;99.90;;;;;;6243358;23;20028;-83
2021/12/28 04:32:36;;;;;;;402.05;83.82;;;5.50;99.90;;;;;;6243109;23;20409;-84
2021/12/28 04:35:03;;;;;;;375.25;83.80;;;5.60;99.90;;;;;;6241805;23;20020;-84
2021/12/28 04:37:29;;;;;;;374.20;82.78;;;5.60;99.90;;;;;;6243184;23;20031;-83
2021/12/28 04:39:54;;;;;;;340.20;76.30;;;5.70;99.90;;;;;;6243368;23;20020;-83
2021/12/28 04:42:20;;;;;;;295.27;73.82;;;5.70;99.90;;;;;;6217495;23;20031;-83
2021/12/28 04:44:49;;;;;;;350.00;80.45;;;5.70;99.90;;;;;;6242881;23;20400;-83
2021/12/28 04:47:16;;;;;;;343.45;75.20;;;5.70;99.90;;;;;;6243275;23;20024;-84
2021/12/28 04:49:43;;;;;;;428.08;88.57;;;5.60;99.90;;;;;;6244707;22;20027;-82
2021/12/28 04:52:09;;;;;;;376.02;84.18;;;5.70;99.90;;;;;;6243333;23;20024;-83
2021/12/28 04:54:37;;;;;;;345.90;78.85;;;5.70;99.90;;;;;;6218080;23;20024;-83
2021/12/28 04:57:05;;;;;;;339.38;73.82;;;5.70;99.90;;;;;;6243278;23;20020;-82
2021/12/28 04:59:36;;;;;;;340.13;75.68;;;5.60;99.90;;;;;;6243114;23;20058;-83
2021/12/28 05:02:03;;;;;;;376.13;80.40;;;5.60;99.90;;;;;;6242790;23;20031;-83
2021/12/28 05:04:28;;;;;;;419.10;85.43;;;5.60;99.90;;;;;;6242197;23;20027;-83
2021/12/28 05:06:57;;;;;;;389.80;83.88;;;5.60;99.90;;;;;;6218145;23;20019;-83
2021/12/28 05:09:23;;;;;;;341.20;77.97;;;5.60;99.90;;;;;;6219768;23;20111;-82
2021/12/28 05:11:50;;;;;;;289.85;70.38;;;5.60;99.90;;;;;;6218163;23;20432;-84
2021/12/28 05:14:17;;;;;;;325.10;73.88;;;5.60;99.90;;;;;;6242967;23;20460;-83
2021/12/28 05:16:44;;;;;;;309.75;72.03;;;5.70;99.90;;;;;;6242952;23;20107;-83
2021/12/28 05:19:10;;;;;;;345.77;75.13;;;5.70;99.90;;;;;;6243183;23;20478;-83
2021/12/28 05:21:37;;;;;;;321.02;75.75;;;5.70;99.90;;;;;;6242343;23;20034;-84
2021/12/28 05:24:03;;;;;;;347.08;77.00;;;5.80;99.90;;;;;;6241849;23;20523;-83
2021/12/28 05:26:29;;;;;;;314.38;76.00;;;5.70;99.90;;;;;;6242836;23;20107;-84
2021/12/28 05:28:55;;;;;;;314.88;75.82;;;5.80;99.90;;;;;;6244447;23;20102;-84
2021/12/28 05:31:25;;;;;;;249.52;68.15;;;5.80;99.90;;;;;;6242661;23;20020;-84
2021/12/28 05:33:52;;;;;;;283.55;67.15;;;5.80;99.90;;;;;;6238208;23;20031;-84
2021/12/28 05:36:18;;;;;;;268.90;66.43;;;5.80;99.90;;;;;;6242080;23;20028;-83
2021/12/28 05:38:43;;;;;;;248.48;65.72;;;5.80;99.90;;;;;;6241817;23;20474;-84
2021/12/28 05:41:09;;;;;;;301.40;70.75;;;5.80;99.90;;;;;;6220414;23;20376;-84
2021/12/28 05:43:35;;;;;;;283.05;69.55;;;5.80;99.90;;;;;;6223262;23;20016;-84
2021/12/28 05:46:02;;;;;;;280.50;68.68;;;5.80;99.90;;;;;;6243968;23;20406;-83
2021/12/28 05:48:28;;;;;;;277.08;67.55;;;5.90;99.90;;;;;;6244174;22;20475;-84
2021/12/28 05:50:53;;;;;;;246.85;66.85;;;5.90;99.90;;;;;;6217185;23;20020;-85
2021/12/28 05:53:19;;;;;;;248.55;66.97;;;5.90;99.90;;;;;;6242139;23;20030;-84
2021/12/28 05:55:45;;;;;;;254.77;69.22;;;5.90;99.90;;;;;;6216636;23;20027;-83
2021/12/28 05:58:11;;;;;;;230.15;63.22;;;5.90;99.90;;;;;;6241225;23;20070;-84
2021/12/28 06:00:37;;;;;;;233.20;64.55;;;6.00;99.90;;;;;;6242492;23;20020;-84
2021/12/28 06:03:12;;;;;;;225.25;65.20;;;6.00;99.90;;;;;;6244504;23;20020;-83
2021/12/28 06:05:38;;;;;;;225.63;63.78;;;6.00;99.90;;;;;;6242676;23;20475;-84
2021/12/28 06:08:05;;;;;;;230.02;67.82;;;6.00;99.90;;;;;;6241686;22;20026;-85
2021/12/28 06:10:32;;;;;;;232.18;64.10;;;6.00;99.90;;;;;;6218066;23;20031;-84
2021/12/28 06:13:04;;;;;;;219.40;64.32;;;6.00;99.90;;;;;;6242595;23;20032;-83
2021/12/28 06:15:29;;;;;;;227.75;65.28;;;5.90;99.90;;;;;;6242217;23;20020;-84
2021/12/28 06:17:58;;;;;;;200.93;58.53;;;5.90;99.90;;;;;;6242537;23;20487;-84
2021/12/28 06:20:24;;;;;;;208.98;62.30;;;5.90;99.90;;;;;;6244351;23;20031;-83
2021/12/28 06:22:50;;;;;;;209.30;60.63;;;5.90;99.90;;;;;;6221315;23;20028;-83
2021/12/28 06:25:15;;;;;;;200.95;60.95;;;6.00;99.90;;;;;;6244519;22;20086;-83
2021/12/28 06:27:47;;;;;;;211.85;61.97;;;6.00;99.90;;;;;;6243812;23;20042;-83
2021/12/28 06:30:13;;;;;;;188.82;59.40;;;5.90;99.90;;;;;;6217941;23;20027;-84
2021/12/28 06:32:47;;;;;;;190.80;57.53;;;5.90;99.90;;;;;;6242513;23;20059;-84
2021/12/28 06:35:13;;;;;;;187.55;56.78;;;5.90;99.90;;;;;;6242394;23;20031;-85
2021/12/28 06:37:40;;;;;;;173.73;55.33;;;5.90;99.90;;;;;;6241767;23;20403;-84
2021/12/28 06:40:08;;;;;;;175.85;54.60;;;5.90;99.90;;;;;;6217280;23;20127;-84
2021/12/28 06:42:34;;;;;;;156.32;52.13;;;5.90;99.90;;;;;;6191481;23;20051;-84
2021/12/28 06:45:00;;;;;;;155.82;51.00;;;5.90;99.90;;;;;;6241893;23;20028;-84
2021/12/28 06:47:26;;;;;;;158.05;48.47;;;5.90;99.90;;;;;;6241929;23;20020;-84
2021/12/28 06:49:51;;;;;;;156.98;49.63;;;5.80;99.90;;;;;;6242437;23;20387;-85
2021/12/28 06:52:25;;;;;;;148.38;51.20;;;5.90;99.90;;;;;;6242257;23;20024;-84
2021/12/28 06:54:51;;;;;;;141.65;48.78;;;5.80;99.90;;;;;;6242325;23;20028;-84
2021/12/28 06:57:17;;;;;;;146.38;48.65;;;5.80;99.90;;;;;;6216557;23;20093;-84
2021/12/28 06:59:44;;;;;;;127.80;44.63;;;5.80;99.90;;;;;;6244212;23;20024;-83
2021/12/28 07:02:18;;;;;;;;;;;5.80;99.90;;;;;;6244963;23;20464;-84
2021/12/28 07:04:45;;;;;;;123.03;42.42;;;5.70;99.90;;;;;;6244303;23;19955;-84
2021/12/28 07:07:14;;;;;;;127.35;45.03;;;5.70;99.90;;;;;;6244922;23;20086;-84
2021/12/28 07:09:41;;;;;;;131.00;43.60;;;5.70;99.90;;;;;;6247446;23;20060;-84
2021/12/28 07:12:08;;;;;;;134.45;44.85;;;5.60;99.90;;;;;;6219344;23;20383;-84
2021/12/28 07:14:33;;;;;;;135.13;45.15;;;5.60;99.90;;;;;;6243197;23;20099;-83
2021/12/28 07:17:00;;;;;;;148.88;47.63;;;5.60;99.90;;;;;;6242899;23;20110;-84
2021/12/28 07:19:26;;;;;;;130.23;45.17;;;5.60;99.90;;;;;;6243996;23;20367;-84
2021/12/28 07:21:52;;;;;;;141.85;44.35;;;5.60;99.90;;;;;;6243939;23;20059;-84
2021/12/28 07:24:18;;;;;;;128.25;44.38;;;5.60;99.90;;;;;;6243819;23;20047;-83
2021/12/28 07:26:44;;;;;;;119.03;42.35;;;5.60;99.90;;;;;;6244019;23;20020;-84
2021/12/28 07:29:12;;;;;;;115.95;41.20;;;5.60;99.90;;;;;;6218310;23;20518;-85
2021/12/28 07:31:39;;;;;;;121.97;41.35;;;5.50;99.90;;;;;;6217738;23;20061;-84
2021/12/28 07:34:05;;;;;;;125.80;41.75;;;5.50;99.90;;;;;;6242503;23;20031;-85
2021/12/28 07:36:32;;;;;;;113.70;41.05;;;5.50;99.90;;;;;;6243675;23;20028;-83
2021/12/28 07:39:00;;;;;;;120.82;39.30;;;5.50;99.90;;;;;;6243819;23;20545;-85
2021/12/28 07:41:31;;;;;;;113.55;39.78;;;5.50;99.90;;;;;;6217803;23;20482;-84
2021/12/28 07:43:57;;;;;;;109.90;39.67;;;5.50;99.90;;;;;;6218446;23;20020;-85
2021/12/28 07:46:23;;;;;;;111.07;40.17;;;5.50;99.90;;;;;;6245701;22;20031;-85
2021/12/28 07:48:52;;;;;;;101.72;38.33;;;5.50;99.90;;;;;;6243552;23;20020;-84
2021/12/28 07:51:18;;;;;;;101.10;36.60;;;5.50;99.90;;;;;;6243700;23;20089;-84
2021/12/28 07:53:43;;;;;;;95.57;36.95;;;5.50;99.90;;;;;;6243537;23;20050;-84
2021/12/28 07:56:09;;;;;;;89.53;35.22;;;5.40;99.90;;;;;;6243607;23;20020;-84
2021/12/28 07:58:35;;;;;;;97.10;36.80;;;5.40;99.90;;;;;;6217066;23;20031;-84
2021/12/28 08:01:01;;;;;;;98.22;35.67;;;5.40;99.90;;;;;;6243634;23;20020;-84
2021/12/28 08:03:35;;;;;;;;;;;5.40;99.90;;;;;;6245784;23;20468;-84
2021/12/28 08:06:02;;;;;;;91.00;32.95;;;5.40;99.90;;;;;;6243650;23;19921;-84
2021/12/28 08:08:28;;;;;;;84.90;33.45;;;5.40;99.90;;;;;;6242667;23;20028;-84
2021/12/28 08:10:53;;;;;;;89.90;33.25;;;5.30;99.90;;;;;;6243466;23;20027;-84
2021/12/28 08:13:21;;;;;;;85.53;33.20;;;5.30;99.90;;;;;;6240466;23;20020;-84
2021/12/28 08:15:47;;;;;;;95.65;34.33;;;5.30;99.90;;;;;;6242701;23;20020;-84
2021/12/28 08:18:13;;;;;;;82.97;31.02;;;5.30;99.90;;;;;;6243445;23;20027;-85
2021/12/28 08:20:39;;;;;;;80.70;32.88;;;5.30;99.90;;;;;;6242900;23;20024;-84
2021/12/28 08:23:06;;;;;;;82.75;31.70;;;5.40;99.90;;;;;;6246980;22;20074;-85
2021/12/28 08:25:32;;;;;;;81.30;30.02;;;5.40;99.90;;;;;;6218261;23;20403;-85
2021/12/28 08:28:06;;;;;;;74.87;30.80;;;5.40;99.90;;;;;;6245897;23;20023;-85
2021/12/28 08:30:37;;;;;;;76.40;28.70;;;5.40;99.90;;;;;;6220014;23;20028;-84
2021/12/28 08:33:07;;;;;;;77.60;28.58;;;5.40;99.90;;;;;;6243275;23;20113;-84
2021/12/28 08:35:34;;;;;;;67.35;27.38;;;5.40;99.90;;;;;;6243263;23;20020;-84
2021/12/28 08:38:02;;;;;;;72.78;28.35;;;5.40;99.90;;;;;;6243245;23;20020;-85
2021/12/28 08:40:28;;;;;;;69.47;28.45;;;5.40;99.90;;;;;;6192832;23;20158;-84
2021/12/28 08:42:54;;;;;;;59.88;27.15;;;5.40;99.90;;;;;;6217393;23;20047;-85
2021/12/28 08:45:20;;;;;;;71.75;27.50;;;5.40;99.90;;;;;;6243137;23;20028;-85
2021/12/28 08:47:48;;;;;;;68.53;27.33;;;5.40;99.90;;;;;;6241665;23;20026;-84
2021/12/28 08:50:15;;;;;;;66.78;26.60;;;5.50;99.90;;;;;;6242879;23;20024;-85
2021/12/28 08:52:41;;;;;;;69.93;27.33;;;5.40;99.90;;;;;;6243015;23;20020;-84
2021/12/28 08:55:07;;;;;;;66.50;26.02;;;5.50;99.90;;;;;;6243070;23;20032;-84
2021/12/28 08:57:33;;;;;;;64.13;26.48;;;5.50;99.90;;;;;;6242349;23;20031;-85
2021/12/28 09:00:05;;;;;;;64.90;24.55;;;5.50;99.90;;;;;;6217545;23;20024;-85
2021/12/28 09:02:31;;;;;;;69.78;26.10;;;5.50;99.90;;;;;;6243044;23;20020;-84
2021/12/28 09:04:56;;;;;;;63.60;25.27;;;5.60;99.90;;;;;;6243005;23;20115;-85
2021/12/28 09:07:23;;;;;;;60.72;24.73;;;5.60;99.90;;;;;;6217601;23;20074;-85
2021/12/28 09:09:49;;;;;;;58.80;24.02;;;5.60;99.90;;;;;;6242688;23;20105;-85
2021/12/28 09:12:23;;;;;;;55.20;22.92;;;5.60;99.90;;;;;;6242915;23;20082;-84
2021/12/28 09:14:52;;;;;;;58.63;22.70;;;5.70;99.90;;;;;;6242725;23;20020;-85
2021/12/28 09:17:25;;;;;;;68.88;24.48;;;5.70;99.90;;;;;;6216863;23;20031;-84
2021/12/28 09:19:51;;;;;;;65.63;24.48;;;5.80;99.90;;;;;;6242797;23;20460;-83
2021/12/28 09:22:17;;;;;;;52.28;21.95;;;5.80;99.90;;;;;;6244573;23;20078;-84
2021/12/28 09:24:43;;;;;;;62.15;23.42;;;5.90;99.90;;;;;;6242955;23;20468;-84
2021/12/28 09:27:08;;;;;;;53.03;23.63;;;6.00;99.90;;;;;;6244619;23;20019;-85
2021/12/28 09:29:35;;;;;;;51.13;21.77;;;6.00;99.90;;;;;;6244141;22;20056;-85
2021/12/28 09:32:02;;;;;;;55.38;23.17;;;6.10;99.90;;;;;;6252271;22;20016;-84
2021/12/28 09:34:28;;;;;;;64.38;22.05;;;6.10;99.90;;;;;;6223155;23;20063;-83
2021/12/28 09:36:55;;;;;;;58.70;21.98;;;6.10;99.90;;;;;;6219272;23;20031;-84
2021/12/28 09:39:26;;;;;;;50.38;21.08;;;6.20;99.90;;;;;;6242636;23;20055;-84
2021/12/28 09:42:00;;;;;;;59.03;22.85;;;6.20;99.90;;;;;;6217314;23;20030;-85
2021/12/28 09:44:30;;;;;;;51.40;20.52;;;6.20;99.90;;;;;;6243033;23;20386;-84
2021/12/28 09:46:58;;;;;;;47.75;20.05;;;6.30;99.90;;;;;;6242578;23;20020;-85
2021/12/28 09:49:26;;;;;;;56.72;21.70;;;6.30;99.90;;;;;;6242122;23;20099;-84
2021/12/28 09:52:20;;;;;;;55.72;20.92;;;6.30;99.90;;;;;;6241667;23;20020;-84
2021/12/28 09:55:06;;;;;;;49.03;21.05;;;6.30;99.90;;;;;;6129417;23;20061;-84
2021/12/28 09:57:32;;;;;;;48.05;20.88;;;6.40;99.90;;;;;;6150797;23;20053;-85
2021/12/28 09:59:58;;;;;;;49.05;20.25;;;6.40;99.90;;;;;;6126231;23;20025;-86
2021/12/28 10:02:44;;;;;;;55.60;20.42;;;6.40;99.90;;;;;;6063661;23;20042;-83
2021/12/28 10:05:13;;;;;;;55.55;22.27;;;6.40;99.90;;;;;;6039751;23;20034;-84
2021/12/28 10:07:54;;;;;;;47.40;20.75;;;6.50;99.90;;;;;;6039449;23;20023;-84
2021/12/28 10:10:20;;;;;;;57.10;19.95;;;6.50;99.90;;;;;;6035938;23;20019;-84
2021/12/28 10:12:52;;;;;;;46.72;19.13;;;6.60;99.90;;;;;;6015387;23;20090;-84
2021/12/28 10:15:22;;;;;;;48.53;19.63;;;6.60;99.90;;;;;;6039805;23;20030;-84
2021/12/28 10:17:54;;;;;;;44.60;20.50;;;6.60;99.90;;;;;;6014830;23;20044;-82
2021/12/28 10:20:20;;;;;;;52.30;20.42;;;6.70;99.90;;;;;;6039730;23;20033;-84
2021/12/28 10:22:52;;;;;;;47.00;20.02;;;6.80;99.90;;;;;;6039212;23;20054;-84
2021/12/28 10:25:31;;;;;;;47.92;19.65;;;6.80;99.90;;;;;;6038664;23;20029;-83
2021/12/28 10:28:06;;;;;;;44.00;19.52;;;6.80;99.90;;;;;;6039382;23;20027;-84
2021/12/28 10:30:41;;;;;;;38.25;17.65;;;6.90;99.90;;;;;;6043231;23;20395;-85
2021/12/28 10:33:13;;;;;;;38.55;18.63;;;6.90;99.90;;;;;;6175273;23;20031;-84
2021/12/28 10:35:46;;;;;;;38.33;17.00;;;6.90;99.90;;;;;;6218995;23;20020;-83
2021/12/28 10:38:20;;;;;;;43.70;16.55;;;6.90;99.90;;;;;;6194295;23;20454;-84
2021/12/28 10:40:49;;;;;;;53.00;19.10;;;6.90;99.90;;;;;;6218723;23;20464;-84
2021/12/28 10:43:18;;;;;;;38.95;16.20;;;6.90;99.90;;;;;;6217840;23;20024;-84
2021/12/28 10:45:49;;;;;;;39.92;15.85;;;6.90;99.90;;;;;;6218980;23;20391;-84
2021/12/28 10:48:19;;;;;;;37.47;17.52;;;6.90;99.90;;;;;;6193782;23;20059;-84
2021/12/28 10:51:02;;;;;;;52.78;15.48;;;6.90;99.90;;;;;;6195451;23;20020;-84
2021/12/28 10:54:12;;;;;;;41.13;15.02;;;6.90;99.90;;;;;;6193641;23;20027;-83
2021/12/28 10:56:59;;;;;;;38.92;16.05;;;6.90;99.90;;;;;;6218815;23;20063;-82
2021/12/28 10:59:33;;;;;;;42.28;18.08;;;6.90;99.90;;;;;;6194154;23;20020;-84
2021/12/28 11:01:59;;;;;;;61.78;20.17;;;7.00;99.90;;;;;;6224514;23;20024;-82
2021/12/28 11:04:33;;;;;;;48.95;16.48;;;6.90;99.90;;;;;;6195102;23;20535;-84
2021/12/28 11:06:59;;;;;;;44.00;15.85;;;6.90;99.90;;;;;;6218645;23;20024;-83
2021/12/28 11:09:26;;;;;;;43.42;16.83;;;6.90;99.90;;;;;;6231760;23;20058;-84
2021/12/28 11:11:54;;;;;;;47.13;17.02;;;6.90;99.90;;;;;;6218003;23;20016;-82
2021/12/28 11:14:24;;;;;;;44.28;17.50;;;6.90;99.90;;;;;;6244087;23;20027;-82
2021/12/28 11:16:50;;;;;;;34.95;17.05;;;6.90;99.90;;;;;;6243790;23;20102;-83
2021/12/28 11:19:23;;;;;;;41.70;16.40;;;6.90;99.90;;;;;;6243865;23;20107;-83
2021/12/28 11:21:58;;;;;;;35.25;16.15;;;6.90;99.90;;;;;;6219085;23;20024;-83
2021/12/28 11:24:28;;;;;;;;;;;6.90;99.90;;;;;;6219085;23;20062;-83
2021/12/28 11:26:54;;;;;;;34.88;15.90;;;6.90;99.90;;;;;;6218502;23;19939;-82
2021/12/28 11:29:27;;;;;;;37.60;16.73;;;6.90;99.90;;;;;;6243862;23;20787;-83
2021/12/28 11:32:01;;;;;;;32.08;15.43;;;6.90;99.90;;;;;;6242988;23;20028;-82
2021/12/28 11:34:32;;;;;;;29.98;15.70;;;6.90;99.90;;;;;;6218425;23;20020;-83
2021/12/28 11:37:20;;;;;;;41.83;17.45;;;6.90;99.90;;;;;;6243672;23;20467;-84
2021/12/28 11:39:50;;;;;;;32.58;15.27;;;6.90;99.90;;;;;;6217628;23;20024;-83
2021/12/28 11:42:17;;;;;;;26.55;13.98;;;6.90;99.90;;;;;;6243647;23;20108;-83
2021/12/28 11:44:49;;;;;;;33.92;16.17;;;7.00;99.90;;;;;;6243659;23;20027;-83
2021/12/28 11:47:16;;;;;;;29.73;15.80;;;6.90;99.90;;;;;;6243873;23;20024;-83
2021/12/28 11:49:43;;;;;;;30.88;15.43;;;6.90;99.90;;;;;;6247043;23;20066;-82
2021/12/28 11:52:17;;;;;;;32.20;15.43;;;6.90;99.90;;;;;;6220027;23;20028;-83
2021/12/28 11:55:00;;;;;;;39.88;14.88;;;6.90;99.90;;;;;;6181876;23;20361;-83
2021/12/28 11:57:29;;;;;;;31.52;16.25;;;6.90;99.90;;;;;;6180890;23;20029;-83
2021/12/28 12:00:10;;;;;;;24.15;13.60;;;7.00;99.90;;;;;;6181973;23;20021;-84
2021/12/28 12:02:49;;;;;;;26.15;14.15;;;6.90;99.90;;;;;;6132179;23;20021;-83
2021/12/28 12:05:21;;;;;;;23.92;13.63;;;7.00;99.90;;;;;;6181291;23;20021;-84
2021/12/28 12:08:06;;;;;;;25.50;12.82;;;7.00;99.90;;;;;;6156969;23;20021;-84
2021/12/28 12:10:36;;;;;;;26.25;13.20;;;7.00;99.90;;;;;;6181766;23;20032;-84
2021/12/28 12:13:06;;;;;;;29.23;13.30;;;6.90;99.90;;;;;;6131729;23;20021;-83
2021/12/28 12:15:39;;;;;;;24.20;13.95;;;6.90;99.90;;;;;;6155968;23;20033;-83
2021/12/28 12:18:10;;;;;;;25.10;13.88;;;7.00;99.90;;;;;;6155810;23;20021;-82
2021/12/28 12:20:55;;;;;;;28.42;13.43;;;7.00;99.90;;;;;;6179357;23;20056;-82
2021/12/28 12:23:38;;;;;;;28.58;13.90;;;7.00;99.90;;;;;;6181662;23;20021;-84
2021/12/28 12:26:08;;;;;;;20.60;12.32;;;7.00;99.90;;;;;;6215208;23;20020;-83
2021/12/28 12:28:46;;;;;;;21.08;12.43;;;7.00;99.90;;;;;;6243455;23;20052;-84
2021/12/28 12:31:28;;;;;;;19.83;11.82;;;7.00;99.90;;;;;;6243479;23;20055;-83
2021/12/28 12:33:55;;;;;;;24.10;13.82;;;7.00;99.90;;;;;;6224173;23;20027;-84
2021/12/28 12:36:41;;;;;;;23.13;13.00;;;7.00;99.90;;;;;;6243481;23;20024;-83
2021/12/28 12:39:09;;;;;;;23.20;12.65;;;7.00;99.90;;;;;;6243192;23;20399;-84
2021/12/28 12:41:48;;;;;;;20.63;12.65;;;7.10;99.90;;;;;;6243612;23;20392;-83
2021/12/28 12:44:18;;;;;;;22.10;13.73;;;7.10;99.90;;;;;;6243499;23;20098;-83